El Paso, TX

10:34 AM MDT on August 28, 2014 (GMT -0600)
Holloman AFB | Change Station
CLOSE
Current Station
Airport
Location: Holloman AFB,
Elevation: 4094 ft
Nearby Weather Stations

Elev 4094 ft 32.85 °N, 106.11 °W | Updated 36 minutes ago

Clear
Clear
78 °F
Feels Like 78 °F
N
10
Wind Variable Wind from NNW

Today
High -- | Low -- °F
--% Chance of Precip.
Yesterday
High -- | Low -- °F
Precip. -- in
6:39 AM 7:35 PM
Waxing Crescent, 9% visible
Pressure 29.92 in
Visibility 10.0 miles
Clouds Clear
Dew Point 57 °F
Humidity 48%
Rainfall 0.00 in
Snow Depth Not available.
UV 6 out of 12
Pollen 9.30 out of 12
Air Quality Not available.
Flu Activity Not available.
METAR KHMN 281558Z AUTO 33009KT 10SM CLR 26/14 A3012 RMK AO2 SLP131 T02570140 $

More Conditions Fewer Conditions

Pressure 29.92 in
Visibility 10.0 miles
Clouds Clear
Dew Point 57 °F
Humidity 48%
Rainfall 0.00 in
Snow Depth Not available.
UV 6 out of 12
Pollen 9.30 out of 12
Air Quality Not available.
Flu Activity Not available.
METAR KHMN 281558Z AUTO 33009KT 10SM CLR 26/14 A3012 RMK AO2 SLP131 T02570140 $

More Conditions Fewer Conditions

10-Day Weather Forecast

Almanac

Astronomy

Aug. 28, 2014 Rise Set
Actual Time 6:39 AM MDT 7:35 PM MDT
Civil Twilight 6:14 AM MDT 8:00 PM MDT
Nautical Twilight 5:44 AM MDT 8:29 PM MDT
Astronomical Twilight 5:14 AM MDT 9:00 PM MDT
Moon 9:21 AM MDT 9:15 PM MDT
Length of Visible Light 13h 46m
Length of Day
12h 56m
Tomorrow will be 1m 52s shorter.
Waxing Crescent, 9% of the Moon is Illuminated
Today
Waxing Crescent
Sep 2
First Quarter
Sep 8
Full
Sep 15
Last Quarter
Sep 24
New

Today's Extremes

State Highs State Lows

Community

WunderPhotos

Upload Photos

1,748,010 photos uploaded!

Nearby

Snow Depth

Station Depth Elevation
No new snow has been reported.

Earthquake Activity

City Distance Mag. Time & Date
No recent earthquake activity has been reported nearby.
Minimum magnitude displayed is 2.5.

Coastal Water Temperatures

Place Temperature
No Stations Reporting

Nearby Weather Stations